aviador You're here:

KRHI Decoded Metar

RHINELANDER in WI, USA
Report Time2017-12-15 18:53:00
UTC Time2017-12-15 19:38:55
Flight Rules mvfr MVFR
Wind310° at 08 kt
W.Decomp.*RWY 33: 7.7 kt HW 2.3 kt LCW
RWY 27: 5.9 kt HW 5.5 kt RCW
W.Rank310° ranks 13
Current wind is above 310° avg. (7.0)
Visibility9999 m
Phenomena:N/A
Clouds:Overcast 021 Hf
Expected CloudBase > 1,600 ft AGL from Temp-Dew spread
Ceiling2,100 ft
Temp-10°C (ISA -22)
Dew Point-14°C (73% RH)
AAT-16.2°C
QNH1007 hPa
Density Alt-886 ft
Elevation1,591 ft
Report Wrong Elevation
Raw Report
METAR KRHI 151853Z AUTO 31008KT 8SM OVC021 M10/M14 A2975 RMK AO2 SNB1755E53
SLP107 P0000 T11001144=

Extra information for KRHI:More info

Metar Taf Metar & Taf Last 4 Metars F.Rules Stats Wind Profile Meteogram Temp Stats Airport Information Weather charts Add Link Nearby VenuesMetar ALERT Operation Metar Decoded Social comments

AIRNAV info for KRHI